createdAt,value
2023-04-30T00:02:20.398Z,12.60
2023-04-30T00:04:47.286Z,6.80
2023-04-30T00:07:14.652Z,6.00
2023-04-30T00:09:41.573Z,8.00
2023-04-30T00:12:08.302Z,7.20
2023-04-30T00:14:35.148Z,8.90
2023-04-30T00:17:01.989Z,10.10
2023-04-30T00:19:28.723Z,9.80
2023-04-30T00:21:55.466Z,6.50
2023-04-30T00:24:22.311Z,7.00
2023-04-30T00:26:49.539Z,7.70
2023-04-30T00:29:18.014Z,7.40
2023-04-30T00:31:45.038Z,5.70
2023-04-30T00:34:11.884Z,4.80
2023-04-30T00:36:39.575Z,5.40
2023-04-30T00:39:06.511Z,7.10
2023-04-30T00:41:34.563Z,7.20
2023-04-30T00:44:02.891Z,7.20
2023-04-30T00:46:29.904Z,5.80
2023-04-30T00:48:56.726Z,7.00
2023-04-30T00:51:23.535Z,5.50
2023-04-30T00:53:50.307Z,6.70
2023-04-30T00:56:18.817Z,10.00
2023-04-30T00:58:47.106Z,7.00
2023-04-30T01:01:15.765Z,5.60
2023-04-30T01:03:43.026Z,8.20
2023-04-30T01:06:10.034Z,7.30
2023-04-30T01:08:36.785Z,6.40
2023-04-30T01:11:17.600Z,6.90
2023-04-30T01:13:58.999Z,6.80
2023-04-30T01:16:27.362Z,7.30
2023-04-30T01:19:40.672Z,6.40
2023-04-30T01:22:19.297Z,7.30
2023-04-30T01:25:12.484Z,10.60
2023-04-30T01:27:54.688Z,5.40
2023-04-30T01:30:21.818Z,6.50
2023-04-30T01:32:48.564Z,6.80
2023-04-30T01:35:16.344Z,6.30
2023-04-30T01:38:05.089Z,6.30
2023-04-30T01:40:59.575Z,5.70
2023-04-30T01:44:00.167Z,7.20
2023-04-30T01:46:29.610Z,7.10
2023-04-30T01:49:18.498Z,6.30
2023-04-30T01:51:48.619Z,5.90
2023-04-30T01:54:15.384Z,7.80
2023-04-30T01:56:47.368Z,12.90
2023-04-30T01:59:14.148Z,8.30
2023-04-30T02:01:41.307Z,6.00
2023-04-30T02:04:08.049Z,5.50
2023-04-30T02:06:34.814Z,4.40
2023-04-30T02:09:07.043Z,5.50
2023-04-30T02:11:33.899Z,4.50
2023-04-30T02:14:00.913Z,5.10
2023-04-30T02:16:27.688Z,5.80
2023-04-30T02:18:54.530Z,6.70
2023-04-30T02:21:21.383Z,6.20
2023-04-30T02:23:48.127Z,5.70
2023-04-30T02:26:15.075Z,6.20
2023-04-30T02:28:42.605Z,6.10
2023-04-30T02:31:10.258Z,7.40
2023-04-30T02:33:37.445Z,4.50
2023-04-30T02:36:04.575Z,6.50
2023-04-30T02:38:31.574Z,6.50
2023-04-30T02:40:58.459Z,7.50
2023-04-30T02:43:25.332Z,7.10
2023-04-30T02:45:52.086Z,4.70
2023-04-30T02:48:18.900Z,7.60
2023-04-30T02:50:45.943Z,8.20
2023-04-30T02:53:12.776Z,6.40
2023-04-30T02:55:39.514Z,6.90
2023-04-30T02:58:06.363Z,6.60
2023-04-30T03:00:33.201Z,8.20
2023-04-30T03:03:00.145Z,11.10
2023-04-30T03:05:28.390Z,6.80
2023-04-30T03:07:55.991Z,6.10
2023-04-30T03:10:23.007Z,7.10
2023-04-30T03:12:49.813Z,13.10
2023-04-30T03:15:18.094Z,9.40
2023-04-30T03:17:46.245Z,13.70
2023-04-30T03:20:14.076Z,8.20
2023-04-30T03:22:41.891Z,6.60
2023-04-30T03:25:10.107Z,11.10
2023-04-30T03:27:36.882Z,6.40
2023-04-30T03:30:04.590Z,10.50
2023-04-30T03:32:31.693Z,9.30
2023-04-30T03:34:58.636Z,10.30
2023-04-30T03:37:26.807Z,7.50
2023-04-30T03:39:53.797Z,6.80
2023-04-30T03:42:21.317Z,9.90
2023-04-30T03:44:50.623Z,10.00
2023-04-30T03:47:17.456Z,7.70
2023-04-30T03:49:45.578Z,10.10
2023-04-30T03:52:12.352Z,10.30
2023-04-30T03:54:39.206Z,7.70
2023-04-30T03:57:07.861Z,7.20
2023-04-30T03:59:34.955Z,16.30
2023-04-30T04:02:02.012Z,8.20
2023-04-30T04:04:29.503Z,8.30
2023-04-30T04:06:56.325Z,10.30
2023-04-30T04:09:23.112Z,9.70
2023-04-30T04:11:50.187Z,9.40
2023-04-30T04:14:17.070Z,9.90
2023-04-30T04:16:44.732Z,9.70
2023-04-30T04:19:13.393Z,8.30
2023-04-30T04:21:40.171Z,8.20
2023-04-30T04:24:11.500Z,8.40
2023-04-30T04:26:38.371Z,10.20
2023-04-30T04:29:05.140Z,7.30
2023-04-30T04:31:32.371Z,9.40
2023-04-30T04:34:00.661Z,6.20
2023-04-30T04:36:28.544Z,5.30
2023-04-30T04:38:57.766Z,12.50
2023-04-30T04:41:25.516Z,6.60
2023-04-30T04:43:53.057Z,7.70
2023-04-30T04:46:21.012Z,10.10
2023-04-30T04:48:50.238Z,11.30
2023-04-30T04:51:17.067Z,10.10
2023-04-30T04:53:43.825Z,9.40
2023-04-30T04:56:10.880Z,12.30
2023-04-30T04:58:37.757Z,8.70
2023-04-30T05:01:07.539Z,7.20
2023-04-30T05:03:37.044Z,6.20
2023-04-30T05:06:04.492Z,8.00
2023-04-30T05:08:31.503Z,5.10
2023-04-30T05:10:58.366Z,5.60
2023-04-30T05:13:25.207Z,5.50
2023-04-30T05:15:54.933Z,9.80
2023-04-30T05:18:21.861Z,8.90
2023-04-30T05:20:49.219Z,7.10
2023-04-30T05:23:16.165Z,4.90
2023-04-30T05:25:42.933Z,4.60
2023-04-30T05:28:10.006Z,8.30
2023-04-30T05:30:37.080Z,5.90
2023-04-30T05:33:04.020Z,6.00
2023-04-30T05:35:31.754Z,5.70
2023-04-30T05:37:58.512Z,5.10
2023-04-30T05:40:25.368Z,3.90
2023-04-30T05:42:52.375Z,5.50
2023-04-30T05:45:19.269Z,6.10
2023-04-30T05:47:46.260Z,4.30
2023-04-30T05:50:13.141Z,5.10
2023-04-30T05:52:39.881Z,9.40
2023-04-30T05:55:07.664Z,12.10
2023-04-30T05:57:35.438Z,4.70
2023-04-30T06:00:02.248Z,3.80
2023-04-30T06:02:39.297Z,4.40
2023-04-30T06:05:07.950Z,10.10
2023-04-30T06:07:34.777Z,4.30
2023-04-30T06:10:01.524Z,4.80
2023-04-30T06:12:28.232Z,6.10
2023-04-30T06:14:54.983Z,4.90
2023-04-30T06:17:21.884Z,4.90
2023-04-30T06:19:48.754Z,3.90
2023-04-30T06:22:15.544Z,13.80
2023-04-30T06:24:42.286Z,5.40
2023-04-30T06:27:09.043Z,8.70
2023-04-30T06:29:35.732Z,5.10
2023-04-30T06:32:07.754Z,5.60
2023-04-30T06:34:36.297Z,5.00
2023-04-30T06:37:03.660Z,3.90
2023-04-30T06:39:30.805Z,6.60
2023-04-30T06:41:57.616Z,7.20
2023-04-30T06:44:24.507Z,4.50
2023-04-30T06:46:52.189Z,13.90
2023-04-30T06:49:18.955Z,7.60
2023-04-30T06:51:45.907Z,4.80
2023-04-30T06:54:12.653Z,6.50
2023-04-30T06:56:39.534Z,4.60
2023-04-30T06:59:06.523Z,3.00
2023-04-30T07:01:33.275Z,3.30
2023-04-30T07:04:00.686Z,5.90
2023-04-30T07:06:27.596Z,25.90
2023-04-30T07:08:54.440Z,4.60
2023-04-30T07:11:21.277Z,6.90
2023-04-30T07:13:48.536Z,7.80
2023-04-30T07:16:17.229Z,2.80
2023-04-30T07:18:44.568Z,3.50
2023-04-30T07:21:15.249Z,4.00
2023-04-30T07:23:42.890Z,4.20
2023-04-30T07:26:09.664Z,4.40
2023-04-30T07:28:36.576Z,2.50
2023-04-30T07:31:03.358Z,3.20
2023-04-30T07:33:30.584Z,3.40
2023-04-30T07:35:58.607Z,4.90
2023-04-30T07:38:25.346Z,4.70
2023-04-30T07:43:53.369Z,5.30
2023-04-30T07:46:20.355Z,10.10
2023-04-30T07:48:47.383Z,5.00
2023-04-30T07:51:14.158Z,4.70
2023-04-30T07:53:41.074Z,3.00
2023-04-30T07:56:08.334Z,3.40
2023-04-30T07:58:35.164Z,4.10
2023-04-30T08:01:02.559Z,3.70
2023-04-30T08:03:29.451Z,10.30
2023-04-30T08:05:56.354Z,7.30
2023-04-30T08:08:23.162Z,8.60
2023-04-30T08:10:51.743Z,3.70
2023-04-30T08:13:18.468Z,4.90
2023-04-30T08:15:45.609Z,2.70
2023-04-30T08:18:12.396Z,2.30
2023-04-30T08:20:39.264Z,2.90
2023-04-30T08:23:06.081Z,4.00
2023-04-30T08:25:32.851Z,3.40
2023-04-30T08:27:59.993Z,3.50
2023-04-30T08:30:26.775Z,4.30
2023-04-30T08:32:55.944Z,2.80
2023-04-30T08:35:24.629Z,5.20
2023-04-30T08:37:51.576Z,6.70
2023-04-30T08:40:18.518Z,4.30
2023-04-30T08:42:48.428Z,3.20
2023-04-30T08:45:16.303Z,6.60
2023-04-30T08:47:43.464Z,8.40
2023-04-30T08:50:10.735Z,5.90
2023-04-30T08:52:37.491Z,8.60
2023-04-30T08:55:06.149Z,4.20
2023-04-30T08:57:32.925Z,3.60
2023-04-30T09:00:01.452Z,7.00
2023-04-30T09:02:28.329Z,10.10
2023-04-30T09:04:55.237Z,8.00
2023-04-30T09:07:24.026Z,7.50
2023-04-30T09:09:53.069Z,3.80
2023-04-30T09:12:20.405Z,7.50
2023-04-30T09:15:09.052Z,4.80
2023-04-30T09:17:36.046Z,4.90
2023-04-30T09:20:13.225Z,3.80
2023-04-30T09:22:41.322Z,6.30
2023-04-30T09:25:11.134Z,4.70
2023-04-30T09:27:38.007Z,13.80
2023-04-30T09:30:06.368Z,7.00
2023-04-30T09:32:33.229Z,8.70
2023-04-30T09:35:00.072Z,7.40
2023-04-30T09:37:39.540Z,4.40
2023-04-30T09:40:07.235Z,4.00
2023-04-30T09:42:34.042Z,5.40
2023-04-30T09:45:00.872Z,6.60
2023-04-30T09:47:29.741Z,3.30
2023-04-30T09:49:56.688Z,4.00
2023-04-30T09:52:24.217Z,19.20
2023-04-30T09:54:50.958Z,6.20
2023-04-30T09:57:17.775Z,6.20
2023-04-30T09:59:46.225Z,6.10
2023-04-30T10:02:16.916Z,13.40
2023-04-30T10:04:44.801Z,5.00
2023-04-30T10:07:22.461Z,5.00
2023-04-30T10:09:59.694Z,9.10
2023-04-30T10:12:35.646Z,4.10
2023-04-30T10:15:10.679Z,8.80
2023-04-30T10:17:41.242Z,7.10
2023-04-30T10:20:09.556Z,6.40
2023-04-30T10:22:36.358Z,10.70
2023-04-30T10:25:03.490Z,7.50
2023-04-30T10:27:30.427Z,5.90
2023-04-30T10:29:57.638Z,6.30
2023-04-30T10:32:24.826Z,11.00
2023-04-30T10:35:14.589Z,9.50
2023-04-30T10:37:48.584Z,6.30
2023-04-30T10:40:15.643Z,5.10
2023-04-30T10:42:46.672Z,10.70
2023-04-30T10:47:42.789Z,4.20
2023-04-30T10:50:10.595Z,3.70
2023-04-30T10:52:38.113Z,12.50
2023-04-30T10:55:09.201Z,6.30
2023-04-30T10:57:43.440Z,4.70
2023-04-30T11:00:10.274Z,4.20
2023-04-30T11:02:44.145Z,6.20
2023-04-30T11:05:12.009Z,4.50
2023-04-30T11:07:58.031Z,5.00
2023-04-30T11:10:27.416Z,1.80
2023-04-30T11:12:55.256Z,3.60
2023-04-30T11:15:25.158Z,8.10
2023-04-30T11:17:52.069Z,2.60
2023-04-30T11:20:20.054Z,6.50
2023-04-30T11:22:46.841Z,9.00
2023-04-30T11:25:13.623Z,3.20
2023-04-30T11:27:45.380Z,2.10
2023-04-30T11:30:13.993Z,3.20
2023-04-30T11:32:41.450Z,4.90
2023-04-30T11:35:08.557Z,2.80
2023-04-30T11:37:40.339Z,6.20
2023-04-30T11:40:08.765Z,4.80
2023-04-30T11:42:36.436Z,10.50
2023-04-30T11:45:07.124Z,2.60
2023-04-30T11:47:50.595Z,2.10
2023-04-30T11:50:19.564Z,3.40
2023-04-30T11:52:50.179Z,2.90
2023-04-30T11:55:17.913Z,5.80
2023-04-30T11:57:46.596Z,3.80
2023-04-30T12:00:18.094Z,8.30
2023-04-30T12:02:47.612Z,3.90
2023-04-30T12:05:24.742Z,5.50
2023-04-30T12:08:04.493Z,4.40
2023-04-30T12:10:31.663Z,4.20
2023-04-30T12:12:58.653Z,3.60
2023-04-30T12:15:29.212Z,3.00
2023-04-30T12:17:57.164Z,3.40
2023-04-30T12:20:28.637Z,4.00
2023-04-30T12:22:55.497Z,8.00
2023-04-30T12:25:24.697Z,7.70
2023-04-30T12:27:52.758Z,4.70
2023-04-30T12:30:29.246Z,4.80
2023-04-30T12:33:00.102Z,8.40
2023-04-30T12:38:02.768Z,7.20
2023-04-30T12:40:29.547Z,4.70
2023-04-30T12:43:08.778Z,3.20
2023-04-30T12:45:52.291Z,3.60
2023-04-30T12:48:20.524Z,3.10
2023-04-30T12:50:58.940Z,10.50
2023-04-30T12:53:25.646Z,4.60
2023-04-30T12:56:17.824Z,10.50
2023-04-30T12:58:51.106Z,3.60
2023-04-30T13:01:20.595Z,4.20
2023-04-30T13:03:47.596Z,8.50
2023-04-30T13:06:14.563Z,10.30
2023-04-30T13:08:56.881Z,4.10
2023-04-30T13:11:26.428Z,5.70
2023-04-30T13:13:55.462Z,5.90
2023-04-30T13:16:23.389Z,3.00
2023-04-30T13:18:50.338Z,3.80
2023-04-30T13:21:17.076Z,4.70
2023-04-30T13:23:51.905Z,3.50
2023-04-30T13:26:21.417Z,4.70
2023-04-30T13:28:48.290Z,7.30
2023-04-30T13:31:15.421Z,4.00
2023-04-30T13:33:42.258Z,3.50
2023-04-30T13:36:09.040Z,3.30
2023-04-30T13:38:35.816Z,4.00
2023-04-30T13:41:02.589Z,3.00
2023-04-30T13:43:29.443Z,2.70
2023-04-30T13:45:56.451Z,5.90
2023-04-30T13:48:23.292Z,2.90
2023-04-30T13:50:51.849Z,4.50
2023-04-30T13:53:18.630Z,4.50
2023-04-30T13:55:45.345Z,3.20
2023-04-30T13:58:13.059Z,3.40
2023-04-30T14:00:39.837Z,5.70
2023-04-30T14:03:08.079Z,2.60
2023-04-30T14:05:36.332Z,5.60
2023-04-30T14:08:04.004Z,3.90
2023-04-30T14:10:30.804Z,2.50
2023-04-30T14:12:57.991Z,3.10
2023-04-30T14:15:24.830Z,8.10
2023-04-30T14:17:53.110Z,8.90
2023-04-30T14:20:20.161Z,3.90
2023-04-30T14:22:47.046Z,5.20
2023-04-30T14:25:13.859Z,1.90
2023-04-30T14:27:41.361Z,6.70
2023-04-30T14:30:09.296Z,2.80
2023-04-30T14:32:37.369Z,3.00
2023-04-30T14:35:05.339Z,2.70
2023-04-30T14:37:32.174Z,3.70
2023-04-30T14:40:00.457Z,4.00
2023-04-30T14:42:27.218Z,4.70
2023-04-30T14:44:54.135Z,2.60
2023-04-30T14:47:21.588Z,4.50
2023-04-30T14:49:50.329Z,4.50
2023-04-30T14:52:17.207Z,3.50
2023-04-30T14:54:44.336Z,4.50
2023-04-30T14:57:16.025Z,3.80
2023-04-30T14:59:43.371Z,3.10
2023-04-30T15:02:11.161Z,4.30
2023-04-30T15:04:38.293Z,3.50
2023-04-30T15:07:05.277Z,3.50
2023-04-30T15:09:32.126Z,6.80
2023-04-30T15:11:58.944Z,6.00
2023-04-30T15:14:25.760Z,4.30
2023-04-30T15:16:52.599Z,4.50
2023-04-30T15:19:19.369Z,5.10
2023-04-30T15:21:48.982Z,6.60
2023-04-30T15:24:16.124Z,7.50
2023-04-30T15:26:42.942Z,5.10
2023-04-30T15:29:10.669Z,2.80
2023-04-30T15:31:37.808Z,5.80
2023-04-30T15:34:04.555Z,5.50
2023-04-30T15:36:32.062Z,5.40
2023-04-30T15:38:59.060Z,6.00
2023-04-30T15:41:26.045Z,5.90
2023-04-30T15:43:52.826Z,3.30
2023-04-30T15:46:19.638Z,8.00
2023-04-30T15:48:46.428Z,5.60
2023-04-30T15:51:13.191Z,5.90
2023-04-30T15:53:40.460Z,6.00
2023-04-30T15:56:07.468Z,4.80
2023-04-30T15:58:34.309Z,5.50
2023-04-30T16:01:02.003Z,5.20
2023-04-30T16:03:28.911Z,6.70
2023-04-30T16:05:56.051Z,6.50
2023-04-30T16:08:22.843Z,3.20
2023-04-30T16:10:49.811Z,4.60
2023-04-30T16:13:16.592Z,4.90
2023-04-30T16:15:43.323Z,6.00
2023-04-30T16:18:10.110Z,6.20
2023-04-30T16:20:37.431Z,6.70
2023-04-30T16:23:04.865Z,6.00
2023-04-30T16:25:34.369Z,4.90
2023-04-30T16:28:01.193Z,6.10
2023-04-30T16:30:27.907Z,5.70
2023-04-30T16:32:54.672Z,4.50
2023-04-30T16:35:21.414Z,7.20
2023-04-30T16:37:51.214Z,5.70
2023-04-30T16:40:18.012Z,7.60
2023-04-30T16:42:44.973Z,7.00
2023-04-30T16:45:11.933Z,7.90
2023-04-30T16:47:40.226Z,9.20
2023-04-30T16:50:08.200Z,27.60
2023-04-30T16:52:34.967Z,6.90
2023-04-30T16:55:02.383Z,8.50
2023-04-30T16:57:29.159Z,9.90
2023-04-30T16:59:56.135Z,11.80
2023-04-30T17:02:23.774Z,12.00
2023-04-30T17:04:51.194Z,18.20
2023-04-30T17:07:18.008Z,14.30
2023-04-30T17:09:44.809Z,16.00
2023-04-30T17:12:12.010Z,21.70
2023-04-30T17:14:38.745Z,34.00
2023-04-30T17:17:05.477Z,48.70
2023-04-30T17:19:32.250Z,45.20
2023-04-30T17:21:59.028Z,43.40
2023-04-30T17:24:25.912Z,30.80
2023-04-30T17:26:53.442Z,29.80
2023-04-30T17:29:21.005Z,23.70
2023-04-30T17:31:48.954Z,21.90
2023-04-30T17:34:15.851Z,26.50
2023-04-30T17:36:44.543Z,16.70
2023-04-30T17:39:11.426Z,28.50
2023-04-30T17:41:38.167Z,35.80
2023-04-30T17:44:04.962Z,9.60
2023-04-30T17:46:31.725Z,27.70
2023-04-30T17:49:01.692Z,15.20
2023-04-30T17:51:31.735Z,16.40
2023-04-30T17:54:01.815Z,13.10
2023-04-30T17:56:31.318Z,12.60
2023-04-30T17:58:58.388Z,9.50
2023-04-30T18:01:25.992Z,8.60
2023-04-30T18:03:53.662Z,21.50
2023-04-30T18:06:20.596Z,24.50
2023-04-30T18:08:47.475Z,84.10
2023-04-30T18:11:14.667Z,98.70
2023-04-30T18:13:41.515Z,39.00
2023-04-30T18:16:08.460Z,31.10
2023-04-30T18:18:35.625Z,15.90
2023-04-30T18:21:03.812Z,11.10
2023-04-30T18:23:30.659Z,8.40
2023-04-30T18:25:57.539Z,11.10
2023-04-30T18:28:24.824Z,7.70
2023-04-30T18:30:51.663Z,19.20
2023-04-30T18:33:18.481Z,40.60
2023-04-30T18:35:49.883Z,27.20
2023-04-30T18:38:16.631Z,14.50
2023-04-30T18:40:43.409Z,22.40
2023-04-30T18:43:10.202Z,70.10
2023-04-30T18:45:36.923Z,61.60
2023-04-30T18:48:03.858Z,45.40
2023-04-30T18:50:30.657Z,18.60
2023-04-30T18:52:57.404Z,13.40
2023-04-30T18:55:24.368Z,10.20
2023-04-30T18:57:51.516Z,6.90
2023-04-30T19:00:18.253Z,11.30
2023-04-30T19:02:45.222Z,16.00
2023-04-30T19:05:12.367Z,9.90
2023-04-30T19:07:40.011Z,11.70
2023-04-30T19:10:07.202Z,5.40
2023-04-30T19:12:34.313Z,8.20
2023-04-30T19:15:01.071Z,11.80
2023-04-30T19:17:28.058Z,9.70
2023-04-30T19:19:58.265Z,9.20
2023-04-30T19:22:25.911Z,9.90
2023-04-30T19:24:52.834Z,14.20
2023-04-30T19:27:19.575Z,11.10
2023-04-30T19:29:46.468Z,6.90
2023-04-30T19:32:13.398Z,17.80
2023-04-30T19:34:40.618Z,19.50
2023-04-30T19:37:07.371Z,14.50
2023-04-30T19:39:36.582Z,16.50
2023-04-30T19:42:04.214Z,9.60
2023-04-30T19:44:30.955Z,8.40
2023-04-30T19:46:58.327Z,8.30
2023-04-30T19:49:26.493Z,8.30
2023-04-30T19:51:54.577Z,6.80
2023-04-30T19:54:21.316Z,9.30
2023-04-30T19:56:48.033Z,6.80
2023-04-30T20:00:26.164Z,7.10
2023-04-30T20:02:53.031Z,6.80
2023-04-30T20:05:19.870Z,4.80
2023-04-30T20:07:46.607Z,5.00
2023-04-30T20:10:13.609Z,6.40
2023-04-30T20:12:40.994Z,9.10
2023-04-30T20:15:08.234Z,8.70
2023-04-30T20:17:36.118Z,6.10
2023-04-30T20:20:03.253Z,7.20
2023-04-30T20:22:30.076Z,6.50
2023-04-30T20:24:56.927Z,7.70
2023-04-30T20:27:23.846Z,9.80
2023-04-30T20:29:50.573Z,12.30
2023-04-30T20:32:17.848Z,11.90
2023-04-30T20:34:44.636Z,11.70
2023-04-30T20:37:11.565Z,4.00
2023-04-30T20:39:38.559Z,5.70
2023-04-30T20:42:05.459Z,9.50
2023-04-30T20:44:33.635Z,5.40
2023-04-30T20:47:03.082Z,5.10
2023-04-30T20:49:30.017Z,6.70
2023-04-30T20:51:56.743Z,4.70
2023-04-30T20:54:23.742Z,11.10
2023-04-30T20:56:50.567Z,7.60
2023-04-30T20:59:17.302Z,7.40
2023-04-30T21:01:44.092Z,9.20
2023-04-30T21:04:11.320Z,4.70
2023-04-30T21:06:38.499Z,5.50
2023-04-30T21:09:06.287Z,4.40
2023-04-30T21:11:33.153Z,8.00
2023-04-30T21:13:59.863Z,6.30
2023-04-30T21:16:27.665Z,7.00
2023-04-30T21:18:59.478Z,7.40
2023-04-30T21:21:27.538Z,6.40
2023-04-30T21:23:54.365Z,5.00
2023-04-30T21:26:24.275Z,6.10
2023-04-30T21:28:52.566Z,5.40
2023-04-30T21:31:19.505Z,6.40
2023-04-30T21:33:47.156Z,4.50
2023-04-30T21:36:16.440Z,8.50
2023-04-30T21:38:46.117Z,9.90
2023-04-30T21:41:16.740Z,6.00
2023-04-30T21:43:43.596Z,5.70
2023-04-30T21:46:11.119Z,7.10
2023-04-30T21:48:40.956Z,5.80
2023-04-30T21:51:12.594Z,11.00
2023-04-30T21:53:39.415Z,6.50
2023-04-30T21:56:09.788Z,6.50
2023-04-30T21:58:37.402Z,6.50
2023-04-30T22:01:05.169Z,10.40
2023-04-30T22:03:32.246Z,5.70
2023-04-30T22:05:59.333Z,5.80
2023-04-30T22:08:26.184Z,8.60
2023-04-30T22:10:58.445Z,6.70
2023-04-30T22:13:28.685Z,6.80
2023-04-30T22:15:55.491Z,6.80
2023-04-30T22:18:22.805Z,12.10
2023-04-30T22:20:50.431Z,4.60
2023-04-30T22:23:23.610Z,8.20
2023-04-30T22:25:50.571Z,6.70
2023-04-30T22:28:19.185Z,5.80
2023-04-30T22:30:46.359Z,8.90
2023-04-30T22:33:13.252Z,7.20
2023-04-30T22:35:40.233Z,8.90
2023-04-30T22:38:07.400Z,7.70
2023-04-30T22:40:34.877Z,8.40
2023-04-30T22:43:01.989Z,7.10
2023-04-30T22:45:31.926Z,6.70
2023-04-30T22:48:01.314Z,8.60
2023-04-30T22:50:28.723Z,8.30
2023-04-30T22:52:56.421Z,5.70
2023-04-30T22:55:23.203Z,8.10
2023-04-30T22:57:50.725Z,8.00
2023-04-30T23:00:19.207Z,6.50
2023-04-30T23:02:46.099Z,8.40
2023-04-30T23:05:13.310Z,5.90
2023-04-30T23:07:40.154Z,10.60
2023-04-30T23:10:07.616Z,10.10
2023-04-30T23:12:35.678Z,10.40
2023-04-30T23:15:02.402Z,8.10
2023-04-30T23:17:29.361Z,10.70
2023-04-30T23:19:56.512Z,6.70
2023-04-30T23:22:24.771Z,10.20
2023-04-30T23:24:51.906Z,17.70
2023-04-30T23:27:18.974Z,15.30
2023-04-30T23:29:46.150Z,10.30
2023-04-30T23:32:12.923Z,6.40
2023-04-30T23:34:39.715Z,5.90
2023-04-30T23:37:06.879Z,10.00
2023-04-30T23:39:33.629Z,8.90
2023-04-30T23:42:00.407Z,7.80
2023-04-30T23:44:27.120Z,8.20
2023-04-30T23:46:55.693Z,11.50
2023-04-30T23:49:24.816Z,7.40
2023-04-30T23:51:51.865Z,6.60
2023-04-30T23:54:18.751Z,6.30
2023-04-30T23:56:46.404Z,5.40
2023-04-30T23:59:13.183Z,8.00
